createdAt,value
2022-12-08T00:02:03.065Z,-9.39
2022-12-08T00:04:51.579Z,-9.34
2022-12-08T00:07:36.993Z,-9.35
2022-12-08T00:10:25.261Z,-9.39
2022-12-08T00:12:54.144Z,-9.36
2022-12-08T00:15:23.752Z,-9.37
2022-12-08T00:17:52.084Z,-9.44
2022-12-08T00:20:20.729Z,-9.39
2022-12-08T00:22:49.528Z,-9.37
2022-12-08T00:25:17.861Z,-9.41
2022-12-08T00:27:46.336Z,-9.39
2022-12-08T00:30:14.771Z,-9.41
2022-12-08T00:32:44.333Z,-9.39
2022-12-08T00:35:12.585Z,-9.32
2022-12-08T00:37:40.805Z,-9.34
2022-12-08T00:40:10.317Z,-9.33
2022-12-08T00:42:38.534Z,-9.26
2022-12-08T00:45:07.777Z,-9.26
2022-12-08T00:47:36.025Z,-9.33
2022-12-08T00:50:06.856Z,-9.28
2022-12-08T00:52:35.850Z,-9.37
2022-12-08T00:55:04.827Z,-9.33
2022-12-08T00:57:33.617Z,-9.37
2022-12-08T01:00:02.247Z,-9.41
2022-12-08T01:02:33.395Z,-9.25
2022-12-08T01:05:01.745Z,-9.27
2022-12-08T01:07:32.796Z,-9.36
2022-12-08T01:10:01.296Z,-9.33
2022-12-08T01:12:31.577Z,-9.38
2022-12-08T01:15:02.440Z,-9.34
2022-12-08T01:17:33.380Z,-9.30
2022-12-08T01:20:02.946Z,-9.32
2022-12-08T01:22:35.360Z,-9.29
2022-12-08T01:25:03.798Z,-9.23
2022-12-08T01:27:32.399Z,-9.21
2022-12-08T01:30:00.800Z,-9.29
2022-12-08T01:32:29.010Z,-9.29
2022-12-08T01:34:57.292Z,-9.29
2022-12-08T01:37:25.567Z,-9.20
2022-12-08T01:39:55.166Z,-9.19
2022-12-08T01:42:24.338Z,-9.20
2022-12-08T01:45:00.986Z,-9.20
2022-12-08T01:47:33.873Z,-9.16
2022-12-08T01:50:02.579Z,-9.16
2022-12-08T01:52:36.296Z,-9.18
2022-12-08T01:55:08.613Z,-9.22
2022-12-08T01:57:41.032Z,-9.18
2022-12-08T02:00:11.681Z,-9.13
2022-12-08T02:02:47.408Z,-9.17
2022-12-08T02:05:15.954Z,-9.14
2022-12-08T02:07:44.976Z,-9.17
2022-12-08T02:10:19.002Z,-9.15
2022-12-08T02:12:47.666Z,-9.14
2022-12-08T02:15:16.389Z,-9.09
2022-12-08T02:17:54.352Z,-9.03
2022-12-08T02:20:36.970Z,-9.09
2022-12-08T02:23:11.397Z,-9.11
2022-12-08T02:25:56.506Z,-9.09
2022-12-08T02:28:40.246Z,-9.11
2022-12-08T02:31:13.456Z,-9.06
2022-12-08T02:33:55.711Z,-9.07
2022-12-08T02:36:26.541Z,-9.07
2022-12-08T02:39:01.215Z,-9.08
2022-12-08T02:41:35.941Z,-9.10
2022-12-08T02:44:09.473Z,-9.09
2022-12-08T02:46:41.701Z,-9.11
2022-12-08T02:49:13.482Z,-9.12
2022-12-08T02:51:41.681Z,-9.11
2022-12-08T02:54:10.005Z,-9.14
2022-12-08T02:56:53.985Z,-9.09
2022-12-08T02:59:29.796Z,-9.17
2022-12-08T03:02:10.960Z,-9.15
2022-12-08T03:04:47.413Z,-9.19
2022-12-08T03:07:23.048Z,-9.26
2022-12-08T03:09:55.524Z,-9.24
2022-12-08T03:12:28.163Z,-9.22
2022-12-08T03:14:58.413Z,-9.21
2022-12-08T03:17:29.732Z,-9.20
2022-12-08T03:19:59.859Z,-9.19
2022-12-08T03:22:29.311Z,-9.20
2022-12-08T03:24:58.305Z,-9.16
2022-12-08T03:27:29.705Z,-9.14
2022-12-08T03:30:00.008Z,-9.10
2022-12-08T03:32:31.707Z,-9.14
2022-12-08T03:35:03.415Z,-9.18
2022-12-08T03:37:32.300Z,-9.21
2022-12-08T03:40:00.490Z,-9.10
2022-12-08T03:42:28.752Z,-9.13
2022-12-08T03:44:57.033Z,-9.20
2022-12-08T03:47:25.230Z,-9.20
2022-12-08T03:49:53.507Z,-9.29
2022-12-08T03:52:23.260Z,-9.20
2022-12-08T03:54:51.525Z,-9.25
2022-12-08T03:57:19.749Z,-9.14
2022-12-08T03:59:48.919Z,-9.23
2022-12-08T04:02:17.637Z,-9.18
2022-12-08T04:04:46.386Z,-9.17
2022-12-08T04:07:14.659Z,-9.09
2022-12-08T04:09:45.092Z,-9.11
2022-12-08T04:12:13.300Z,-9.20
2022-12-08T04:14:41.712Z,-9.22
2022-12-08T04:17:09.951Z,-9.13
2022-12-08T04:19:38.240Z,-9.17
2022-12-08T04:22:06.498Z,-9.13
2022-12-08T04:24:34.729Z,-9.13
2022-12-08T04:27:04.419Z,-9.12
2022-12-08T04:29:32.721Z,-9.12
2022-12-08T04:32:01.176Z,-9.09
2022-12-08T04:34:29.589Z,-9.21
2022-12-08T04:36:57.904Z,-9.25
2022-12-08T04:39:26.145Z,-9.22
2022-12-08T04:41:54.387Z,-9.20
2022-12-08T04:44:24.084Z,-9.24
2022-12-08T04:46:52.406Z,-9.24
2022-12-08T04:49:20.760Z,-9.27
2022-12-08T04:51:49.149Z,-9.26
2022-12-08T04:54:17.385Z,-9.22
2022-12-08T04:56:45.680Z,-9.34
2022-12-08T04:59:14.045Z,-9.27
2022-12-08T05:01:43.799Z,-9.31
2022-12-08T05:04:12.773Z,-9.33
2022-12-08T05:06:41.306Z,-9.34
2022-12-08T05:09:10.101Z,-9.39
2022-12-08T05:11:46.977Z,-9.40
2022-12-08T05:14:18.018Z,-9.44
2022-12-08T05:16:47.981Z,-9.37
2022-12-08T05:19:17.128Z,-9.65
2022-12-08T05:21:45.445Z,-9.48
2022-12-08T05:24:13.773Z,-9.44
2022-12-08T05:26:42.026Z,-9.48
2022-12-08T05:29:10.190Z,-9.47
2022-12-08T05:31:38.727Z,-9.43
2022-12-08T05:34:08.354Z,-9.36
2022-12-08T05:36:37.114Z,-9.46
2022-12-08T05:39:05.627Z,-9.50
2022-12-08T05:41:34.044Z,-9.53
2022-12-08T05:44:02.283Z,-9.51
2022-12-08T05:46:30.674Z,-9.46
2022-12-08T05:49:00.821Z,-9.48
2022-12-08T05:51:30.932Z,-9.40
2022-12-08T05:53:59.476Z,-9.54
2022-12-08T05:56:27.773Z,-9.58
2022-12-08T05:58:56.143Z,-9.52
2022-12-08T06:01:26.096Z,-9.51
2022-12-08T06:03:54.581Z,-9.50
2022-12-08T06:06:23.810Z,-9.56
2022-12-08T06:08:54.312Z,-9.50
2022-12-08T06:11:25.224Z,-9.46
2022-12-08T06:13:53.690Z,-9.48
2022-12-08T06:16:22.440Z,-9.46
2022-12-08T06:18:51.011Z,-9.40
2022-12-08T06:21:19.862Z,-9.40
2022-12-08T06:23:49.839Z,-9.34
2022-12-08T06:26:19.821Z,-9.39
2022-12-08T06:28:48.018Z,-9.30
2022-12-08T06:31:18.257Z,-9.26
2022-12-08T06:33:46.708Z,-9.31
2022-12-08T06:36:16.907Z,-9.30
2022-12-08T06:38:45.651Z,-9.23
2022-12-08T06:41:14.871Z,-9.25
2022-12-08T06:43:45.302Z,-9.20
2022-12-08T06:46:16.197Z,-9.19
2022-12-08T06:48:44.652Z,-9.21
2022-12-08T06:51:14.134Z,-9.19
2022-12-08T06:53:43.345Z,-9.13
2022-12-08T06:56:12.360Z,-9.23
2022-12-08T06:58:40.924Z,-9.19
2022-12-08T07:01:12.433Z,-9.19
2022-12-08T07:03:43.643Z,-9.17
2022-12-08T07:06:17.076Z,-9.14
2022-12-08T07:08:45.420Z,-9.07
2022-12-08T07:11:20.938Z,-9.05
2022-12-08T07:13:50.253Z,-9.04
2022-12-08T07:16:20.144Z,-9.03
2022-12-08T07:18:48.617Z,-9.02
2022-12-08T07:21:18.010Z,-9.06
2022-12-08T07:24:26.731Z,-9.01
2022-12-08T07:26:55.087Z,-8.92
2022-12-08T07:29:26.353Z,-8.96
2022-12-08T07:31:56.358Z,-8.87
2022-12-08T07:34:24.648Z,-8.91
2022-12-08T07:36:52.852Z,-8.91
2022-12-08T07:39:21.128Z,-8.84
2022-12-08T07:41:49.270Z,-8.81
2022-12-08T07:44:17.745Z,-8.87
2022-12-08T07:46:46.216Z,-8.87
2022-12-08T07:49:15.897Z,-8.81
2022-12-08T07:51:44.123Z,-8.79
2022-12-08T07:54:13.616Z,-8.66
2022-12-08T07:56:41.815Z,-8.70
2022-12-08T07:59:10.025Z,-8.66
2022-12-08T08:01:41.393Z,-8.58
2022-12-08T08:04:13.315Z,-8.63
2022-12-08T08:06:43.006Z,-8.59
2022-12-08T08:09:11.297Z,-8.51
2022-12-08T08:11:39.470Z,-8.49
2022-12-08T08:14:07.829Z,-8.48
2022-12-08T08:16:38.533Z,-8.30
2022-12-08T08:19:07.129Z,-8.36
2022-12-08T08:21:50.732Z,-8.21
2022-12-08T08:24:21.670Z,-8.21
2022-12-08T08:26:50.098Z,-8.32
2022-12-08T08:29:18.296Z,-8.33
2022-12-08T08:31:47.073Z,-8.20
2022-12-08T08:34:15.380Z,-8.15
2022-12-08T08:36:43.629Z,-8.15
2022-12-08T08:39:12.708Z,-8.02
2022-12-08T08:41:42.532Z,-8.02
2022-12-08T08:44:10.748Z,-7.94
2022-12-08T08:46:39.021Z,-7.90
2022-12-08T08:49:07.465Z,-7.84
2022-12-08T08:51:35.840Z,-7.84
2022-12-08T08:54:04.144Z,-7.86
2022-12-08T08:56:32.410Z,-7.85
2022-12-08T08:59:03.127Z,-7.98
2022-12-08T09:01:31.666Z,-7.90
2022-12-08T09:04:01.660Z,-7.82
2022-12-08T09:06:30.219Z,-7.87
2022-12-08T09:08:58.562Z,-7.81
2022-12-08T09:11:27.009Z,-7.67
2022-12-08T09:13:55.931Z,-7.76
2022-12-08T09:16:25.972Z,-7.82
2022-12-08T09:18:54.470Z,-7.73
2022-12-08T09:21:24.749Z,-7.74
2022-12-08T09:23:54.161Z,-7.74
2022-12-08T09:26:23.339Z,-7.72
2022-12-08T09:28:51.602Z,-7.66
2022-12-08T09:31:21.261Z,-7.60
2022-12-08T09:33:52.737Z,-7.67
2022-12-08T09:36:22.553Z,-7.78
2022-12-08T09:38:51.879Z,-7.66
2022-12-08T09:41:28.294Z,-7.54
2022-12-08T09:44:06.279Z,-7.57
2022-12-08T09:46:35.595Z,-7.54
2022-12-08T09:49:05.935Z,-7.51
2022-12-08T09:51:37.562Z,-7.51
2022-12-08T09:54:09.924Z,-7.50
2022-12-08T09:56:38.752Z,-7.59
2022-12-08T09:59:18.662Z,-7.58
2022-12-08T10:01:47.091Z,-7.64
2022-12-08T10:04:25.193Z,-7.65
2022-12-08T10:07:04.990Z,-7.66
2022-12-08T10:09:39.397Z,-7.56
2022-12-08T10:12:16.429Z,-7.50
2022-12-08T10:14:46.230Z,-7.53
2022-12-08T10:17:19.350Z,-7.49
2022-12-08T10:19:49.929Z,-7.51
2022-12-08T10:22:22.728Z,-7.48
2022-12-08T10:24:59.703Z,-7.37
2022-12-08T10:27:28.065Z,-7.46
2022-12-08T10:29:56.233Z,-7.46
2022-12-08T10:32:25.346Z,-7.37
2022-12-08T10:35:10.150Z,-7.42
2022-12-08T10:37:39.740Z,-7.48
2022-12-08T10:40:12.292Z,-7.44
2022-12-08T10:42:43.256Z,-7.50
2022-12-08T10:45:22.360Z,-7.40
2022-12-08T10:47:58.232Z,-7.38
2022-12-08T10:50:33.109Z,-7.41
2022-12-08T10:53:02.499Z,-7.35
2022-12-08T10:55:31.442Z,-7.33
2022-12-08T10:57:59.713Z,-7.30
2022-12-08T11:00:29.592Z,-7.27
2022-12-08T11:03:00.735Z,-7.24
2022-12-08T11:05:33.949Z,-7.23
2022-12-08T11:08:03.692Z,-7.17
2022-12-08T11:10:36.628Z,-7.19
2022-12-08T11:13:07.203Z,-7.15
2022-12-08T11:15:38.859Z,-7.15
2022-12-08T11:18:23.787Z,-7.13
2022-12-08T11:21:03.713Z,-7.13
2022-12-08T11:23:32.227Z,-7.03
2022-12-08T11:26:06.746Z,-7.06
2022-12-08T11:28:35.079Z,-7.04
2022-12-08T11:31:08.465Z,-6.99
2022-12-08T11:33:36.874Z,-7.10
2022-12-08T11:36:09.152Z,-7.03
2022-12-08T11:38:43.878Z,-6.96
2022-12-08T11:41:16.365Z,-6.98
2022-12-08T11:43:49.635Z,-7.02
2022-12-08T11:46:21.459Z,-7.02
2022-12-08T11:48:52.325Z,-7.16
2022-12-08T11:51:25.386Z,-7.21
2022-12-08T11:54:08.200Z,-7.26
2022-12-08T11:56:38.398Z,-7.15
2022-12-08T11:59:14.289Z,-7.21
2022-12-08T12:01:42.902Z,-7.24
2022-12-08T12:04:17.679Z,-7.18
2022-12-08T12:07:42.224Z,-7.18
2022-12-08T12:10:24.928Z,-7.15
2022-12-08T12:13:18.492Z,-7.13
2022-12-08T12:16:31.208Z,-7.06
2022-12-08T12:19:01.438Z,-7.09
2022-12-08T12:21:33.408Z,-7.11
2022-12-08T12:24:05.133Z,-7.13
2022-12-08T12:26:38.839Z,-7.10
2022-12-08T12:29:08.865Z,-7.09
2022-12-08T12:31:39.585Z,-7.08
2022-12-08T12:34:10.303Z,-7.05
2022-12-08T12:36:53.171Z,-7.01
2022-12-08T12:39:23.415Z,-7.00
2022-12-08T12:42:01.354Z,-7.00
2022-12-08T12:44:41.005Z,-6.97
2022-12-08T12:47:16.773Z,-6.98
2022-12-08T12:49:53.903Z,-6.99
2022-12-08T12:52:55.709Z,-6.90
2022-12-08T12:55:26.138Z,-6.94
2022-12-08T12:57:57.357Z,-6.97
2022-12-08T13:00:26.996Z,-6.94
2022-12-08T13:02:55.953Z,-6.94
2022-12-08T13:05:27.101Z,-6.92
2022-12-08T13:07:57.024Z,-7.01
2022-12-08T13:10:27.416Z,-6.90
2022-12-08T13:13:09.693Z,-6.85
2022-12-08T13:15:40.189Z,-6.85
2022-12-08T13:18:09.298Z,-6.81
2022-12-08T13:20:43.361Z,-6.82
2022-12-08T13:23:27.716Z,-7.04
2022-12-08T13:26:20.647Z,-6.77
2022-12-08T13:29:16.665Z,-6.79
2022-12-08T13:31:50.890Z,-6.87
2022-12-08T13:34:29.218Z,-6.90
2022-12-08T13:37:04.048Z,-6.86
2022-12-08T13:39:38.254Z,-6.77
2022-12-08T13:42:13.561Z,-6.71
2022-12-08T13:45:24.270Z,-6.77
2022-12-08T13:47:59.932Z,-6.73
2022-12-08T13:59:30.620Z,-6.70
2022-12-08T14:02:03.818Z,-6.70
2022-12-08T14:05:01.271Z,-6.71
2022-12-08T14:07:22.855Z,-6.64
2022-12-08T14:09:51.333Z,-6.62
2022-12-08T14:12:22.313Z,-6.71
2022-12-08T14:15:08.328Z,-6.74
2022-12-08T14:17:41.023Z,-6.71
2022-12-08T14:20:21.414Z,-6.73
2022-12-08T14:22:50.459Z,-6.67
2022-12-08T14:25:19.335Z,-6.60
2022-12-08T14:27:48.356Z,-6.62
2022-12-08T14:30:22.698Z,-6.72
2022-12-08T14:32:54.400Z,-6.69
2022-12-08T14:35:25.342Z,-6.66
2022-12-08T14:37:56.576Z,-6.67
2022-12-08T14:40:26.805Z,-6.69
2022-12-08T14:43:05.635Z,-6.74
2022-12-08T14:45:35.571Z,-6.69
2022-12-08T14:48:26.806Z,-6.60
2022-12-08T14:51:01.879Z,-6.60
2022-12-08T14:53:37.987Z,-6.64
2022-12-08T14:56:10.219Z,-6.59
2022-12-08T14:58:38.513Z,-6.60
2022-12-08T15:01:10.429Z,-6.57
2022-12-08T15:03:40.297Z,-6.59
2022-12-08T15:06:09.880Z,-6.55
2022-12-08T15:08:53.620Z,-6.54
2022-12-08T15:11:36.886Z,-6.56
2022-12-08T15:14:05.390Z,-6.59
2022-12-08T15:16:40.574Z,-6.53
2022-12-08T15:19:23.612Z,-6.47
2022-12-08T15:21:52.309Z,-6.54
2022-12-08T15:24:21.224Z,-6.49
2022-12-08T15:26:51.551Z,-6.46
2022-12-08T15:29:22.709Z,-6.46
2022-12-08T15:31:54.020Z,-6.44
2022-12-08T15:34:23.776Z,-6.38
2022-12-08T15:36:53.592Z,-6.36
2022-12-08T15:39:32.671Z,-6.35
2022-12-08T15:42:01.635Z,-6.27
2022-12-08T15:44:32.662Z,-6.28
2022-12-08T15:47:02.362Z,-6.30
2022-12-08T15:49:32.136Z,-6.34
2022-12-08T15:52:11.251Z,-6.30
2022-12-08T15:54:40.358Z,-6.28
2022-12-08T15:57:19.470Z,-6.30
2022-12-08T15:59:48.679Z,-6.30
2022-12-08T16:02:22.368Z,-6.27
2022-12-08T16:07:41.565Z,-6.24
2022-12-08T16:10:12.827Z,-6.22
2022-12-08T16:13:55.372Z,-6.13
2022-12-08T16:15:58.635Z,-6.16
2022-12-08T16:18:30.104Z,-6.15
2022-12-08T16:23:55.734Z,-6.02
2022-12-08T16:27:06.817Z,-6.06
2022-12-08T16:29:19.604Z,-5.95
2022-12-08T16:31:48.296Z,-5.89
2022-12-08T16:34:16.872Z,-5.98
2022-12-08T16:36:46.575Z,-5.92
2022-12-08T16:39:15.323Z,-5.92
2022-12-08T16:42:01.347Z,-5.85
2022-12-08T16:44:29.690Z,-5.92
2022-12-08T16:46:58.090Z,-5.90
2022-12-08T16:49:26.626Z,-5.89
2022-12-08T16:51:56.330Z,-5.83
2022-12-08T16:54:24.661Z,-5.82
2022-12-08T16:56:52.853Z,-5.84
2022-12-08T16:59:21.145Z,-5.86
2022-12-08T17:01:49.398Z,-5.85
2022-12-08T17:04:33.150Z,-5.79
2022-12-08T17:07:03.266Z,-5.80
2022-12-08T17:09:32.499Z,-5.86
2022-12-08T17:12:04.109Z,-5.82
2022-12-08T17:14:34.822Z,-5.75
2022-12-08T17:17:03.348Z,-5.71
2022-12-08T17:19:32.385Z,-5.67
2022-12-08T17:22:00.760Z,-5.70
2022-12-08T17:24:30.466Z,-5.69
2022-12-08T17:27:00.159Z,-5.63
2022-12-08T17:29:28.557Z,-5.65
2022-12-08T17:31:56.830Z,-5.71
2022-12-08T17:34:25.184Z,-5.72
2022-12-08T17:36:53.605Z,-5.83
2022-12-08T17:39:21.928Z,-5.67
2022-12-08T17:41:51.586Z,-5.73
2022-12-08T17:44:21.350Z,-5.73
2022-12-08T17:46:52.978Z,-5.69
2022-12-08T17:49:23.582Z,-5.69
2022-12-08T17:51:54.966Z,-5.75
2022-12-08T17:54:23.544Z,-5.77
2022-12-08T17:56:53.224Z,-5.76
2022-12-08T17:59:21.863Z,-5.72
2022-12-08T18:01:50.599Z,-5.66
2022-12-08T18:04:18.952Z,-5.65
2022-12-08T18:06:47.352Z,-5.63
2022-12-08T18:09:16.495Z,-5.64
2022-12-08T18:11:46.387Z,-5.63
2022-12-08T18:14:16.901Z,-5.69
2022-12-08T18:16:46.483Z,-5.68
2022-12-08T18:19:15.847Z,-5.64
2022-12-08T18:21:44.472Z,-5.59
2022-12-08T18:24:18.374Z,-5.60
2022-12-08T18:26:46.745Z,-5.56
2022-12-08T18:29:16.423Z,-5.52
2022-12-08T18:31:44.617Z,-5.51
2022-12-08T18:34:12.943Z,-5.45
2022-12-08T18:36:41.209Z,-5.48
2022-12-08T18:39:22.721Z,-5.46
2022-12-08T18:41:51.080Z,-5.52
2022-12-08T18:44:21.086Z,-5.48
2022-12-08T18:46:49.509Z,-5.47
2022-12-08T18:49:19.252Z,-5.51
2022-12-08T18:51:47.857Z,-5.52
2022-12-08T18:54:16.452Z,-5.47
2022-12-08T18:56:44.906Z,-5.46
2022-12-08T18:59:13.778Z,-5.48
2022-12-08T19:01:43.813Z,-5.51
2022-12-08T19:04:28.724Z,-5.52
2022-12-08T19:06:58.275Z,-5.49
2022-12-08T19:09:27.160Z,-5.46
2022-12-08T19:11:55.540Z,-5.47
2022-12-08T19:14:28.291Z,-5.52
2022-12-08T19:16:58.844Z,-5.46
2022-12-08T19:19:27.598Z,-5.43
2022-12-08T19:21:55.817Z,-5.40
2022-12-08T19:24:24.443Z,-5.43
2022-12-08T19:26:52.877Z,-5.42
2022-12-08T19:29:21.423Z,-5.42
2022-12-08T19:31:49.784Z,-5.45
2022-12-08T19:34:19.687Z,-5.46
2022-12-08T19:36:47.865Z,-5.45
2022-12-08T19:39:35.779Z,-5.46
2022-12-08T19:42:22.036Z,-5.44
2022-12-08T19:44:56.088Z,-5.40
2022-12-08T19:47:26.029Z,-5.44
2022-12-08T19:50:17.009Z,-5.42
2022-12-08T19:52:45.676Z,-5.38
2022-12-08T19:55:14.710Z,-5.38
2022-12-08T19:57:43.607Z,-5.41
2022-12-08T20:00:13.669Z,-5.39
2022-12-08T20:02:42.007Z,-5.39
2022-12-08T20:05:13.441Z,-5.41
2022-12-08T20:07:41.749Z,-5.37
2022-12-08T20:10:14.292Z,-5.33
2022-12-08T20:12:42.601Z,-5.34
2022-12-08T20:15:11.800Z,-5.25
2022-12-08T20:17:42.143Z,-5.32
2022-12-08T20:20:16.181Z,-5.30
2022-12-08T20:22:45.446Z,-5.28
2022-12-08T20:25:14.221Z,-5.21
2022-12-08T20:27:42.916Z,-5.14
2022-12-08T20:30:17.045Z,-5.16
2022-12-08T20:32:46.592Z,-5.15
2022-12-08T20:35:16.338Z,-5.30
2022-12-08T20:37:45.074Z,-5.21
2022-12-08T20:40:13.848Z,-5.21
2022-12-08T20:42:42.317Z,-5.18
2022-12-08T20:45:10.987Z,-5.20
2022-12-08T20:47:39.372Z,-5.22
2022-12-08T20:50:09.208Z,-5.22
2022-12-08T20:52:41.831Z,-5.18
2022-12-08T20:55:11.204Z,-5.19
2022-12-08T20:57:39.527Z,-5.15
2022-12-08T21:00:09.453Z,-5.18
2022-12-08T21:02:43.322Z,-5.16
2022-12-08T21:05:15.686Z,-5.21
2022-12-08T21:07:45.550Z,-5.17
2022-12-08T21:10:13.834Z,-5.11
2022-12-08T21:12:42.204Z,-5.06
2022-12-08T21:15:12.829Z,-5.16
2022-12-08T21:17:41.418Z,-5.18
2022-12-08T21:20:10.673Z,-5.16
2022-12-08T21:22:40.377Z,-5.18
2022-12-08T21:25:10.884Z,-5.19
2022-12-08T21:27:39.740Z,-5.19
2022-12-08T21:30:10.669Z,-5.19
2022-12-08T21:32:40.214Z,-5.12
2022-12-08T21:35:09.783Z,-5.13
2022-12-08T21:37:38.679Z,-5.16
2022-12-08T21:40:08.444Z,-5.07
2022-12-08T21:42:47.636Z,-5.07
2022-12-08T21:45:17.355Z,-5.03
2022-12-08T21:47:45.983Z,-5.08
2022-12-08T21:50:15.050Z,-5.08
2022-12-08T21:52:45.086Z,-5.09
2022-12-08T21:55:14.368Z,-5.04
2022-12-08T21:57:44.552Z,-5.03
2022-12-08T22:00:16.556Z,-5.08
2022-12-08T22:02:45.684Z,-5.06
2022-12-08T22:05:14.328Z,-5.05
2022-12-08T22:07:43.679Z,-5.05
2022-12-08T22:10:12.812Z,-5.03
2022-12-08T22:12:41.413Z,-4.96
2022-12-08T22:15:12.365Z,-4.98
2022-12-08T22:17:42.278Z,-4.97
2022-12-08T22:20:12.999Z,-4.95
2022-12-08T22:22:41.356Z,-4.93
2022-12-08T22:25:12.109Z,-4.96
2022-12-08T22:27:42.612Z,-4.94
2022-12-08T22:30:13.195Z,-4.93
2022-12-08T22:32:42.070Z,-4.88
2022-12-08T22:35:11.661Z,-4.88
2022-12-08T22:37:39.865Z,-4.88
2022-12-08T22:40:10.032Z,-4.91
2022-12-08T22:42:38.640Z,-4.83
2022-12-08T22:45:07.822Z,-4.80
2022-12-08T22:47:37.476Z,-4.81
2022-12-08T22:50:07.274Z,-4.82
2022-12-08T22:52:36.129Z,-4.80
2022-12-08T22:55:04.311Z,-4.72
2022-12-08T22:57:32.768Z,-4.72
2022-12-08T23:00:00.997Z,-4.70
2022-12-08T23:02:29.347Z,-4.67
2022-12-08T23:04:59.168Z,-4.66
2022-12-08T23:07:28.187Z,-4.64
2022-12-08T23:09:56.494Z,-4.65
2022-12-08T23:12:25.420Z,-4.60
2022-12-08T23:14:53.671Z,-4.62
2022-12-08T23:17:22.093Z,-4.59
2022-12-08T23:19:50.544Z,-4.58
2022-12-08T23:22:20.162Z,-4.53
2022-12-08T23:24:48.547Z,-4.55
2022-12-08T23:27:16.868Z,-4.57
2022-12-08T23:29:45.290Z,-4.54
2022-12-08T23:32:13.584Z,-4.54
2022-12-08T23:34:41.925Z,-4.51
2022-12-08T23:37:10.261Z,-4.46
2022-12-08T23:39:40.481Z,-4.54
2022-12-08T23:42:08.932Z,-4.57
2022-12-08T23:44:37.348Z,-4.50
2022-12-08T23:47:05.708Z,-4.45
2022-12-08T23:49:34.639Z,-4.53
2022-12-08T23:52:02.878Z,-4.57
2022-12-08T23:54:31.331Z,-4.55
2022-12-08T23:57:01.067Z,-4.54
2022-12-08T23:59:29.490Z,-4.53
